sensor_id;sensor_type;location;lat;lon;timestamp;pressure;altitude;pressure_sealevel;temperature;humidity
49461;BME280;35355;49.198;-0.368;2023-03-30T00:00:32;100185.97;;;15.17;61.77
49461;BME280;35355;49.198;-0.368;2023-03-30T00:02:57;100185.16;;;15.16;61.42
49461;BME280;35355;49.198;-0.368;2023-03-30T00:05:30;100195.84;;;15.18;61.47
49461;BME280;35355;49.198;-0.368;2023-03-30T00:07:55;100199.41;;;15.18;61.26
49461;BME280;35355;49.198;-0.368;2023-03-30T00:10:21;100202.47;;;15.17;61.36
49461;BME280;35355;49.198;-0.368;2023-03-30T00:12:47;100215.91;;;15.18;61.31
49461;BME280;35355;49.198;-0.368;2023-03-30T00:15:16;100199.41;;;15.18;61.24
49461;BME280;35355;49.198;-0.368;2023-03-30T00:17:41;100215.91;;;15.18;61.37
49461;BME280;35355;49.198;-0.368;2023-03-30T00:20:08;100202.47;;;15.17;61.37
49461;BME280;35355;49.198;-0.368;2023-03-30T00:22:42;100209.06;;;15.16;61.43
49461;BME280;35355;49.198;-0.368;2023-03-30T00:25:10;100213.22;;;15.13;61.58
49461;BME280;35355;49.198;-0.368;2023-03-30T00:27:36;100222.09;;;15.10;61.62
49461;BME280;35355;49.198;-0.368;2023-03-30T00:30:03;100206.53;;;15.05;61.81
49461;BME280;35355;49.198;-0.368;2023-03-30T00:32:29;100221.41;;;15.04;61.88
49461;BME280;35355;49.198;-0.368;2023-03-30T00:34:54;100223.31;;;15.04;62.03
49461;BME280;35355;49.198;-0.368;2023-03-30T00:37:20;100230.75;;;15.03;62.08
49461;BME280;35355;49.198;-0.368;2023-03-30T00:39:45;100228.50;;;15.05;62.19
49461;BME280;35355;49.198;-0.368;2023-03-30T00:42:15;100226.06;;;15.04;62.22
49461;BME280;35355;49.198;-0.368;2023-03-30T00:47:31;100252.63;;;15.08;62.39
49461;BME280;35355;49.198;-0.368;2023-03-30T00:49:57;100240.53;;;15.09;62.54
49461;BME280;35355;49.198;-0.368;2023-03-30T00:52:23;100252.88;;;15.12;62.29
49461;BME280;35355;49.198;-0.368;2023-03-30T00:54:50;100255.00;;;15.15;62.45
49461;BME280;35355;49.198;-0.368;2023-03-30T00:57:19;100249.50;;;15.15;62.45
49461;BME280;35355;49.198;-0.368;2023-03-30T00:59:47;100261.00;;;15.17;62.76
49461;BME280;35355;49.198;-0.368;2023-03-30T01:02:15;100253.97;;;15.11;62.95
49461;BME280;35355;49.198;-0.368;2023-03-30T01:04:41;100257.22;;;15.13;62.89
49461;BME280;35355;49.198;-0.368;2023-03-30T01:07:07;100244.63;;;15.12;63.03
49461;BME280;35355;49.198;-0.368;2023-03-30T01:09:37;100242.19;;;15.11;63.21
49461;BME280;35355;49.198;-0.368;2023-03-30T01:12:03;100233.41;;;15.08;63.43
49461;BME280;35355;49.198;-0.368;2023-03-30T01:14:29;100222.72;;;15.07;63.80
49461;BME280;35355;49.198;-0.368;2023-03-30T01:22:53;100203.38;;;14.98;63.98
49461;BME280;35355;49.198;-0.368;2023-03-30T01:28:39;100185.03;;;14.94;63.22
49461;BME280;35355;49.198;-0.368;2023-03-30T01:44:28;100190.19;;;14.67;63.80
49461;BME280;35355;49.198;-0.368;2023-03-30T01:49:44;100182.34;;;14.61;64.54
49461;BME280;35355;49.198;-0.368;2023-03-30T01:52:44;100192.28;;;14.56;64.37
49461;BME280;35355;49.198;-0.368;2023-03-30T01:58:29;100198.69;;;14.52;64.83
49461;BME280;35355;49.198;-0.368;2023-03-30T02:00:59;100206.72;;;14.48;64.98
49461;BME280;35355;49.198;-0.368;2023-03-30T02:03:34;100205.41;;;14.46;65.19
49461;BME280;35355;49.198;-0.368;2023-03-30T02:06:08;100220.47;;;14.48;65.26
49461;BME280;35355;49.198;-0.368;2023-03-30T02:08:36;100219.84;;;14.51;65.44
49461;BME280;35355;49.198;-0.368;2023-03-30T02:11:02;100223.09;;;14.53;65.46
49461;BME280;35355;49.198;-0.368;2023-03-30T02:13:30;100228.28;;;14.55;65.43
49461;BME280;35355;49.198;-0.368;2023-03-30T02:16:02;100218.66;;;14.57;65.30
49461;BME280;35355;49.198;-0.368;2023-03-30T02:18:29;100225.22;;;14.62;65.42
49461;BME280;35355;49.198;-0.368;2023-03-30T02:20:54;100229.56;;;14.63;65.45
49461;BME280;35355;49.198;-0.368;2023-03-30T02:23:25;100232.31;;;14.63;65.46
49461;BME280;35355;49.198;-0.368;2023-03-30T02:25:53;100223.75;;;14.64;65.48
49461;BME280;35355;49.198;-0.368;2023-03-30T02:28:18;100221.84;;;14.65;65.31
49461;BME280;35355;49.198;-0.368;2023-03-30T02:30:44;100223.75;;;14.64;65.44
49461;BME280;35355;49.198;-0.368;2023-03-30T02:33:25;100225.47;;;14.60;64.92
49461;BME280;35355;49.198;-0.368;2023-03-30T02:38:54;100235.06;;;14.63;65.06
49461;BME280;35355;49.198;-0.368;2023-03-30T02:49:51;100248.56;;;14.59;64.47
49461;BME280;35355;49.198;-0.368;2023-03-30T03:01:00;100250.56;;;14.53;64.05
49461;BME280;35355;49.198;-0.368;2023-03-30T03:03:54;100252.59;;;14.48;64.18
49461;BME280;35355;49.198;-0.368;2023-03-30T03:06:22;100247.94;;;14.48;63.59
49461;BME280;35355;49.198;-0.368;2023-03-30T03:08:48;100253.72;;;14.47;64.59
49461;BME280;35355;49.198;-0.368;2023-03-30T03:11:15;100250.00;;;14.37;64.60
49461;BME280;35355;49.198;-0.368;2023-03-30T03:13:41;100255.00;;;14.35;65.22
49461;BME280;35355;49.198;-0.368;2023-03-30T03:16:08;100250.59;;;14.34;64.97
49461;BME280;35355;49.198;-0.368;2023-03-30T03:18:37;100246.50;;;14.32;64.92
49461;BME280;35355;49.198;-0.368;2023-03-30T03:21:05;100252.31;;;14.30;64.92
49461;BME280;35355;49.198;-0.368;2023-03-30T03:23:31;100261.69;;;14.29;65.01
49461;BME280;35355;49.198;-0.368;2023-03-30T03:25:56;100250.47;;;14.26;64.89
49461;BME280;35355;49.198;-0.368;2023-03-30T03:28:21;100265.31;;;14.25;64.78
49461;BME280;35355;49.198;-0.368;2023-03-30T03:30:48;100262.03;;;14.23;65.13
49461;BME280;35355;49.198;-0.368;2023-03-30T03:33:13;100256.56;;;14.23;64.99
49461;BME280;35355;49.198;-0.368;2023-03-30T03:35:39;100257.66;;;14.21;65.08
49461;BME280;35355;49.198;-0.368;2023-03-30T03:38:05;100266.72;;;14.22;64.99
49461;BME280;35355;49.198;-0.368;2023-03-30T03:40:33;100256.56;;;14.23;64.98
49461;BME280;35355;49.198;-0.368;2023-03-30T03:42:59;100265.88;;;14.21;64.87
49461;BME280;35355;49.198;-0.368;2023-03-30T03:45:24;100257.97;;;14.20;64.97
49461;BME280;35355;49.198;-0.368;2023-03-30T03:47:50;100263.75;;;14.18;65.15
49461;BME280;35355;49.198;-0.368;2023-03-30T03:50:16;100267.31;;;14.19;65.26
49461;BME280;35355;49.198;-0.368;2023-03-30T03:52:41;100272.50;;;14.20;65.12
49461;BME280;35355;49.198;-0.368;2023-03-30T03:55:07;100274.44;;;14.20;65.21
49461;BME280;35355;49.198;-0.368;2023-03-30T03:57:33;100273.03;;;14.23;65.21
49461;BME280;35355;49.198;-0.368;2023-03-30T03:59:58;100278.50;;;14.23;65.12
49461;BME280;35355;49.198;-0.368;2023-03-30T04:02:24;100279.56;;;14.27;65.24
49461;BME280;35355;49.198;-0.368;2023-03-30T04:04:50;100278.16;;;14.29;65.12
49461;BME280;35355;49.198;-0.368;2023-03-30T04:07:16;100275.09;;;14.31;65.14
49461;BME280;35355;49.198;-0.368;2023-03-30T04:09:41;100267.38;;;14.33;65.16
49461;BME280;35355;49.198;-0.368;2023-03-30T04:12:07;100276.13;;;14.35;65.03
49461;BME280;35355;49.198;-0.368;2023-03-30T04:14:32;100281.59;;;14.35;65.08
49461;BME280;35355;49.198;-0.368;2023-03-30T04:16:58;100275.84;;;14.36;65.18
49461;BME280;35355;49.198;-0.368;2023-03-30T04:19:24;100277.16;;;14.39;64.90
49461;BME280;35355;49.198;-0.368;2023-03-30T04:21:52;100279.91;;;14.39;65.03
49461;BME280;35355;49.198;-0.368;2023-03-30T04:24:20;100272.81;;;14.38;64.87
49461;BME280;35355;49.198;-0.368;2023-03-30T04:26:47;100283.19;;;14.41;64.92
49461;BME280;35355;49.198;-0.368;2023-03-30T04:29:14;100285.09;;;14.41;64.92
49461;BME280;35355;49.198;-0.368;2023-03-30T04:31:41;100280.44;;;14.41;65.02
49461;BME280;35355;49.198;-0.368;2023-03-30T04:34:11;100271.38;;;14.41;64.69
49461;BME280;35355;49.198;-0.368;2023-03-30T04:36:36;100284.28;;;14.40;64.83
49461;BME280;35355;49.198;-0.368;2023-03-30T04:39:02;100277.75;;;14.36;64.76
49461;BME280;35355;49.198;-0.368;2023-03-30T04:41:31;100279.16;;;14.33;64.76
49461;BME280;35355;49.198;-0.368;2023-03-30T04:44:02;100286.59;;;14.33;64.77
49461;BME280;35355;49.198;-0.368;2023-03-30T04:46:28;100294.53;;;14.34;64.71
49461;BME280;35355;49.198;-0.368;2023-03-30T04:48:53;100286.84;;;14.36;64.65
49461;BME280;35355;49.198;-0.368;2023-03-30T04:51:18;100284.88;;;14.37;64.71
49461;BME280;35355;49.198;-0.368;2023-03-30T04:53:44;100285.69;;;14.37;64.32
49461;BME280;35355;49.198;-0.368;2023-03-30T04:56:09;100283.19;;;14.41;64.61
49461;BME280;35355;49.198;-0.368;2023-03-30T04:58:35;100283.19;;;14.41;64.68
49461;BME280;35355;49.198;-0.368;2023-03-30T05:01:01;100285.94;;;14.41;64.70
49461;BME280;35355;49.198;-0.368;2023-03-30T05:03:27;100285.94;;;14.41;64.63
49461;BME280;35355;49.198;-0.368;2023-03-30T05:05:53;100293.03;;;14.42;64.52
49461;BME280;35355;49.198;-0.368;2023-03-30T05:08:19;100292.53;;;14.40;64.51
49461;BME280;35355;49.198;-0.368;2023-03-30T05:10:44;100292.31;;;14.36;64.52
49461;BME280;35355;49.198;-0.368;2023-03-30T05:13:09;100306.84;;;14.37;64.41
49461;BME280;35355;49.198;-0.368;2023-03-30T05:15:35;100299.72;;;14.36;64.59
49461;BME280;35355;49.198;-0.368;2023-03-30T05:18:00;100306.84;;;14.37;64.58
49461;BME280;35355;49.198;-0.368;2023-03-30T05:20:25;100303.81;;;14.38;64.39
49461;BME280;35355;49.198;-0.368;2023-03-30T05:22:51;100311.75;;;14.40;64.44
49461;BME280;35355;49.198;-0.368;2023-03-30T05:25:18;100316.44;;;14.39;64.42
49461;BME280;35355;49.198;-0.368;2023-03-30T05:27:43;100317.25;;;14.40;64.41
49461;BME280;35355;49.198;-0.368;2023-03-30T05:30:09;100307.66;;;14.37;64.31
49461;BME280;35355;49.198;-0.368;2023-03-30T05:32:35;100321.09;;;14.39;64.32
49461;BME280;35355;49.198;-0.368;2023-03-30T05:35:00;100323.84;;;14.39;64.32
49461;BME280;35355;49.198;-0.368;2023-03-30T05:37:26;100328.22;;;14.40;64.16
49461;BME280;35355;49.198;-0.368;2023-03-30T05:39:51;100332.06;;;14.39;64.08
49461;BME280;35355;49.198;-0.368;2023-03-30T05:42:17;100340.91;;;14.36;64.07
49461;BME280;35355;49.198;-0.368;2023-03-30T05:44:43;100349.75;;;14.33;64.05
49461;BME280;35355;49.198;-0.368;2023-03-30T05:47:08;100359.06;;;14.32;64.11
49461;BME280;35355;49.198;-0.368;2023-03-30T05:49:33;100349.53;;;14.29;64.18
49461;BME280;35355;49.198;-0.368;2023-03-30T05:51:59;100348.78;;;14.24;64.03
49461;BME280;35355;49.198;-0.368;2023-03-30T05:54:25;100359.22;;;14.21;64.18
49461;BME280;35355;49.198;-0.368;2023-03-30T05:56:51;100364.19;;;14.19;64.42
49461;BME280;35355;49.198;-0.368;2023-03-30T05:59:17;100361.25;;;14.16;64.48
49461;BME280;35355;49.198;-0.368;2023-03-30T06:01:43;100356.31;;;14.13;64.36
49461;BME280;35355;49.198;-0.368;2023-03-30T06:04:10;100361.00;;;14.12;64.79
49461;BME280;35355;49.198;-0.368;2023-03-30T06:06:35;100359.66;;;14.10;64.68
49461;BME280;35355;49.198;-0.368;2023-03-30T06:09:01;100367.38;;;14.08;64.79
49461;BME280;35355;49.198;-0.368;2023-03-30T06:11:27;100367.97;;;14.04;64.95
49461;BME280;35355;49.198;-0.368;2023-03-30T06:13:52;100370.47;;;14.01;64.87
49461;BME280;35355;49.198;-0.368;2023-03-30T06:16:18;100375.94;;;14.01;64.84
49461;BME280;35355;49.198;-0.368;2023-03-30T06:18:43;100378.69;;;14.01;64.90
49461;BME280;35355;49.198;-0.368;2023-03-30T06:21:09;100381.44;;;14.01;64.85
49461;BME280;35355;49.198;-0.368;2023-03-30T06:23:34;100386.41;;;13.99;64.93
49461;BME280;35355;49.198;-0.368;2023-03-30T06:26:02;100390.56;;;13.96;64.88
49461;BME280;35355;49.198;-0.368;2023-03-30T06:28:27;100391.41;;;13.97;65.13
49461;BME280;35355;49.198;-0.368;2023-03-30T06:30:52;100390.81;;;14.00;65.06
49461;BME280;35355;49.198;-0.368;2023-03-30T06:33:18;100387.53;;;13.98;65.01
49461;BME280;35355;49.198;-0.368;2023-03-30T06:35:49;100396.03;;;13.96;64.86
49461;BME280;35355;49.198;-0.368;2023-03-30T06:38:15;100403.19;;;13.97;65.11
49461;BME280;35355;49.198;-0.368;2023-03-30T06:40:41;100405.63;;;13.99;65.14
49461;BME280;35355;49.198;-0.368;2023-03-30T06:43:07;100400.72;;;13.96;65.04
49461;BME280;35355;49.198;-0.368;2023-03-30T06:45:33;100403.75;;;13.94;65.08
49461;BME280;35355;49.198;-0.368;2023-03-30T06:47:58;100408.44;;;13.94;65.43
49461;BME280;35355;49.198;-0.368;2023-03-30T06:50:24;100406.81;;;13.93;65.26
49461;BME280;35355;49.198;-0.368;2023-03-30T06:52:49;100413.94;;;13.94;65.15
49461;BME280;35355;49.198;-0.368;2023-03-30T06:55:14;100425.41;;;13.96;65.34
49461;BME280;35355;49.198;-0.368;2023-03-30T06:57:40;100419.63;;;13.97;65.23
49461;BME280;35355;49.198;-0.368;2023-03-30T07:00:06;100424.84;;;13.99;65.27
49461;BME280;35355;49.198;-0.368;2023-03-30T07:02:41;100426.19;;;14.01;65.22
49461;BME280;35355;49.198;-0.368;2023-03-30T07:05:08;100433.84;;;14.04;65.16
49461;BME280;35355;49.198;-0.368;2023-03-30T07:07:34;100434.94;;;14.03;65.28
49461;BME280;35355;49.198;-0.368;2023-03-30T07:10:00;100439.91;;;14.01;65.31
49461;BME280;35355;49.198;-0.368;2023-03-30T07:12:26;100439.63;;;14.03;65.43
49461;BME280;35355;49.198;-0.368;2023-03-30T07:14:51;100446.97;;;14.08;65.18
49461;BME280;35355;49.198;-0.368;2023-03-30T07:17:18;100439.53;;;14.08;65.16
49461;BME280;35355;49.198;-0.368;2023-03-30T07:19:45;100452.16;;;14.09;64.97
49461;BME280;35355;49.198;-0.368;2023-03-30T07:22:10;100448.03;;;14.12;64.94
49461;BME280;35355;49.198;-0.368;2023-03-30T07:24:35;100459.81;;;14.12;65.08
49461;BME280;35355;49.198;-0.368;2023-03-30T07:27:01;100452.13;;;14.14;64.85
49461;BME280;35355;49.198;-0.368;2023-03-30T07:29:26;100464.13;;;14.18;65.06
49461;BME280;35355;49.198;-0.368;2023-03-30T07:31:53;100461.31;;;14.24;64.92
49461;BME280;35355;49.198;-0.368;2023-03-30T07:34:20;100449.16;;;14.30;64.97
49461;BME280;35355;49.198;-0.368;2023-03-30T07:36:46;100459.50;;;14.38;64.87
49461;BME280;35355;49.198;-0.368;2023-03-30T07:39:11;100461.28;;;14.48;64.76
49461;BME280;35355;49.198;-0.368;2023-03-30T07:41:37;100463.91;;;14.58;64.65
49461;BME280;35355;49.198;-0.368;2023-03-30T07:44:02;100463.78;;;14.68;64.47
49461;BME280;35355;49.198;-0.368;2023-03-30T07:46:27;100459.84;;;14.74;64.19
49461;BME280;35355;49.198;-0.368;2023-03-30T07:48:53;100461.50;;;14.76;64.20
49461;BME280;35355;49.198;-0.368;2023-03-30T07:51:19;100462.84;;;14.78;64.04
49461;BME280;35355;49.198;-0.368;2023-03-30T07:53:46;100468.34;;;14.78;63.92
49461;BME280;35355;49.198;-0.368;2023-03-30T07:56:12;100457.34;;;14.78;64.01
49461;BME280;35355;49.198;-0.368;2023-03-30T07:58:37;100465.28;;;14.80;64.11
49461;BME280;35355;49.198;-0.368;2023-03-30T08:01:04;100466.09;;;14.80;63.83
49461;BME280;35355;49.198;-0.368;2023-03-30T08:03:29;100469.44;;;14.77;63.90
49461;BME280;35355;49.198;-0.368;2023-03-30T08:06:02;100476.03;;;14.76;63.84
49461;BME280;35355;49.198;-0.368;2023-03-30T08:08:32;100485.63;;;14.79;64.08
49461;BME280;35355;49.198;-0.368;2023-03-30T08:10:58;100481.47;;;14.81;64.19
49461;BME280;35355;49.198;-0.368;2023-03-30T08:13:24;100492.69;;;14.85;64.07
49461;BME280;35355;49.198;-0.368;2023-03-30T08:15:49;100487.19;;;14.85;64.11
49461;BME280;35355;49.198;-0.368;2023-03-30T08:18:17;100486.38;;;14.84;64.12
49461;BME280;35355;49.198;-0.368;2023-03-30T08:20:42;100498.47;;;14.83;64.06
49461;BME280;35355;49.198;-0.368;2023-03-30T08:23:09;100496.31;;;14.80;64.38
49461;BME280;35355;49.198;-0.368;2023-03-30T08:25:34;100508.00;;;14.72;64.18
49461;BME280;35355;49.198;-0.368;2023-03-30T08:28:00;100507.81;;;14.63;64.52
49461;BME280;35355;49.198;-0.368;2023-03-30T08:30:26;100507.03;;;14.57;65.09
49461;BME280;35355;49.198;-0.368;2023-03-30T08:32:52;100496.94;;;14.53;65.19
49461;BME280;35355;49.198;-0.368;2023-03-30T08:35:18;100514.22;;;14.53;65.86
49461;BME280;35355;49.198;-0.368;2023-03-30T08:37:43;100507.09;;;14.52;65.94
49461;BME280;35355;49.198;-0.368;2023-03-30T08:40:13;100505.47;;;14.51;65.81
49461;BME280;35355;49.198;-0.368;2023-03-30T08:45:20;100517.44;;;14.61;66.14
49461;BME280;35355;49.198;-0.368;2023-03-30T08:47:48;100508.84;;;14.67;65.94
49461;BME280;35355;49.198;-0.368;2023-03-30T08:52:53;100508.94;;;14.81;65.29
49461;BME280;35355;49.198;-0.368;2023-03-30T08:55:28;100510.00;;;14.85;65.46
49461;BME280;35355;49.198;-0.368;2023-03-30T08:58:02;100519.25;;;14.89;65.47
49461;BME280;35355;49.198;-0.368;2023-03-30T09:00:48;100512.06;;;14.94;65.29
49461;BME280;35355;49.198;-0.368;2023-03-30T09:03:30;100509.56;;;14.97;65.19
49461;BME280;35355;49.198;-0.368;2023-03-30T09:08:43;100522.75;;;15.14;64.83
49461;BME280;35355;49.198;-0.368;2023-03-30T09:11:12;100518.31;;;15.18;64.92
49461;BME280;35355;49.198;-0.368;2023-03-30T09:13:41;100534.22;;;15.21;64.60
49461;BME280;35355;49.198;-0.368;2023-03-30T09:16:17;100527.06;;;15.20;64.35
49461;BME280;35355;49.198;-0.368;2023-03-30T09:18:48;100518.53;;;15.22;64.55
49461;BME280;35355;49.198;-0.368;2023-03-30T09:21:15;100524.25;;;15.25;64.39
49461;BME280;35355;49.198;-0.368;2023-03-30T09:23:42;100529.97;;;15.29;64.26
49461;BME280;35355;49.198;-0.368;2023-03-30T09:26:33;100532.84;;;15.38;64.56
49461;BME280;35355;49.198;-0.368;2023-03-30T09:36:57;100551.88;;;15.53;63.84
49461;BME280;35355;49.198;-0.368;2023-03-30T09:39:27;100550.13;;;15.57;63.59
49461;BME280;35355;49.198;-0.368;2023-03-30T09:45:18;100552.72;;;15.68;63.49
49461;BME280;35355;49.198;-0.368;2023-03-30T09:47:45;100551.13;;;15.67;63.20
49461;BME280;35355;49.198;-0.368;2023-03-30T09:50:25;100555.06;;;15.60;63.45
49461;BME280;35355;49.198;-0.368;2023-03-30T09:52:59;100562.88;;;15.53;63.01
49461;BME280;35355;49.198;-0.368;2023-03-30T09:55:33;100561.84;;;15.49;63.30
49461;BME280;35355;49.198;-0.368;2023-03-30T09:58:17;100569.06;;;15.45;63.44
49461;BME280;35355;49.198;-0.368;2023-03-30T10:00:43;100573.50;;;15.41;63.77
49461;BME280;35355;49.198;-0.368;2023-03-30T10:03:18;100562.06;;;15.34;63.84
49461;BME280;35355;49.198;-0.368;2023-03-30T10:05:43;100570.63;;;15.32;64.24
49461;BME280;35355;49.198;-0.368;2023-03-30T10:08:19;100562.97;;;15.29;64.35
49461;BME280;35355;49.198;-0.368;2023-03-30T10:10:52;100565.84;;;15.38;64.63
49461;BME280;35355;49.198;-0.368;2023-03-30T10:13:18;100558.06;;;15.45;64.82
49461;BME280;35355;49.198;-0.368;2023-03-30T10:15:51;100564.59;;;15.49;64.86
49461;BME280;35355;49.198;-0.368;2023-03-30T10:18:21;100568.59;;;15.57;65.07
49461;BME280;35355;49.198;-0.368;2023-03-30T10:21:19;100558.84;;;15.65;64.95
49461;BME280;35355;49.198;-0.368;2023-03-30T10:24:04;100557.56;;;15.76;64.89
49461;BME280;35355;49.198;-0.368;2023-03-30T10:26:35;100551.16;;;15.81;64.84
49461;BME280;35355;49.198;-0.368;2023-03-30T10:29:03;100544.03;;;15.79;64.95
49461;BME280;35355;49.198;-0.368;2023-03-30T10:31:30;100553.84;;;15.86;64.81
49461;BME280;35355;49.198;-0.368;2023-03-30T10:34:00;100543.78;;;15.95;64.55
49461;BME280;35355;49.198;-0.368;2023-03-30T10:36:37;100545.13;;;16.11;64.55
49461;BME280;35355;49.198;-0.368;2023-03-30T10:39:22;100534.53;;;16.33;64.56
49461;BME280;35355;49.198;-0.368;2023-03-30T10:41:49;100534.34;;;16.57;64.35
49461;BME280;35355;49.198;-0.368;2023-03-30T10:46:50;100538.59;;;16.91;63.26
49461;BME280;35355;49.198;-0.368;2023-03-30T10:49:49;100532.66;;;16.97;63.19
49461;BME280;35355;49.198;-0.368;2023-03-30T10:57:51;100534.44;;;17.16;61.86
49461;BME280;35355;49.198;-0.368;2023-03-30T11:00:30;100533.53;;;17.21;61.75
49461;BME280;35355;49.198;-0.368;2023-03-30T11:03:12;100540.75;;;17.30;61.64
49461;BME280;35355;49.198;-0.368;2023-03-30T11:05:46;100541.00;;;17.43;61.20
49461;BME280;35355;49.198;-0.368;2023-03-30T11:08:27;100542.50;;;17.49;61.17
49461;BME280;35355;49.198;-0.368;2023-03-30T11:10:55;100535.16;;;17.44;60.06
49461;BME280;35355;49.198;-0.368;2023-03-30T11:13:25;100533.97;;;17.36;60.12
49461;BME280;35355;49.198;-0.368;2023-03-30T11:16:05;100531.31;;;17.31;60.31
49461;BME280;35355;49.198;-0.368;2023-03-30T11:18:45;100534.22;;;17.26;60.47
49461;BME280;35355;49.198;-0.368;2023-03-30T11:21:17;100538.72;;;17.22;60.55
49461;BME280;35355;49.198;-0.368;2023-03-30T11:23:52;100530.56;;;17.17;61.14
49461;BME280;35355;49.198;-0.368;2023-03-30T11:26:48;100541.72;;;17.12;61.09
49461;BME280;35355;49.198;-0.368;2023-03-30T11:37:51;100548.91;;;16.29;62.39
49461;BME280;35355;49.198;-0.368;2023-03-30T11:40:39;100553.69;;;16.10;62.47
49461;BME280;35355;49.198;-0.368;2023-03-30T11:43:12;100537.97;;;15.96;63.80
49461;BME280;35355;49.198;-0.368;2023-03-30T11:53:32;100519.13;;;16.31;66.18
49461;BME280;35355;49.198;-0.368;2023-03-30T11:56:09;100508.09;;;16.45;66.59
49461;BME280;35355;49.198;-0.368;2023-03-30T12:04:02;100508.78;;;16.79;66.48
49461;BME280;35355;49.198;-0.368;2023-03-30T12:06:37;100512.25;;;16.84;66.25
49461;BME280;35355;49.198;-0.368;2023-03-30T12:15:04;100495.50;;;16.95;65.18
49461;BME280;35355;49.198;-0.368;2023-03-30T12:18:02;100506.09;;;17.01;64.88
49461;BME280;35355;49.198;-0.368;2023-03-30T12:26:00;100495.06;;;17.01;64.53
49461;BME280;35355;49.198;-0.368;2023-03-30T12:28:46;100487.59;;;17.02;64.19
49461;BME280;35355;49.198;-0.368;2023-03-30T12:31:13;100496.72;;;17.03;64.15
49461;BME280;35355;49.198;-0.368;2023-03-30T12:33:51;100501.84;;;16.95;64.01
49461;BME280;35355;49.198;-0.368;2023-03-30T12:36:31;100495.94;;;16.88;64.17
49461;BME280;35355;49.198;-0.368;2023-03-30T12:39:00;100487.13;;;16.86;64.34
49461;BME280;35355;49.198;-0.368;2023-03-30T12:41:28;100493.97;;;16.89;64.38
49461;BME280;35355;49.198;-0.368;2023-03-30T12:44:19;100492.44;;;16.96;64.50
49461;BME280;35355;49.198;-0.368;2023-03-30T12:52:40;100502.63;;;17.10;63.03
49461;BME280;35355;49.198;-0.368;2023-03-30T13:03:35;100486.56;;;16.47;64.75
49461;BME280;35355;49.198;-0.368;2023-03-30T13:06:02;100468.59;;;16.50;65.19
49461;BME280;35355;49.198;-0.368;2023-03-30T13:08:36;100470.25;;;16.51;65.02
49461;BME280;35355;49.198;-0.368;2023-03-30T13:11:16;100472.06;;;16.56;65.29
49461;BME280;35355;49.198;-0.368;2023-03-30T13:13:57;100469.72;;;16.63;64.99
49461;BME280;35355;49.198;-0.368;2023-03-30T13:24:59;100466.34;;;16.66;64.98
49461;BME280;35355;49.198;-0.368;2023-03-30T13:27:28;100453.28;;;16.72;64.42
49461;BME280;35355;49.198;-0.368;2023-03-30T13:29:58;100454.91;;;16.73;64.38
49461;BME280;35355;49.198;-0.368;2023-03-30T13:32:50;100453.13;;;16.77;64.34
49461;BME280;35355;49.198;-0.368;2023-03-30T13:51:42;100446.31;;;16.74;62.75
49461;BME280;35355;49.198;-0.368;2023-03-30T13:54:16;100450.81;;;16.70;63.18
49461;BME280;35355;49.198;-0.368;2023-03-30T13:56:48;100440.72;;;16.65;63.41
49461;BME280;35355;49.198;-0.368;2023-03-30T13:59:19;100436.34;;;16.64;63.54
49461;BME280;35355;49.198;-0.368;2023-03-30T14:01:52;100434.38;;;16.65;63.71
49461;BME280;35355;49.198;-0.368;2023-03-30T14:04:18;100429.41;;;16.67;63.74
49461;BME280;35355;49.198;-0.368;2023-03-30T14:06:46;100431.63;;;16.65;63.67
49461;BME280;35355;49.198;-0.368;2023-03-30T14:09:22;100424.81;;;16.62;63.79
49461;BME280;35355;49.198;-0.368;2023-03-30T14:11:57;100423.06;;;16.66;64.04
49461;BME280;35355;49.198;-0.368;2023-03-30T14:14:42;100414.69;;;16.72;64.03
49461;BME280;35355;49.198;-0.368;2023-03-30T14:17:31;100401.16;;;16.84;64.10
49461;BME280;35355;49.198;-0.368;2023-03-30T14:22:47;100397.81;;;17.10;62.95
49461;BME280;35355;49.198;-0.368;2023-03-30T14:25:39;100407.91;;;17.14;63.12
49461;BME280;35355;49.198;-0.368;2023-03-30T14:28:19;100389.78;;;17.22;62.52
49461;BME280;35355;49.198;-0.368;2023-03-30T14:33:17;100389.34;;;17.29;61.15
49461;BME280;35355;49.198;-0.368;2023-03-30T14:35:46;100387.38;;;17.29;61.22
49461;BME280;35355;49.198;-0.368;2023-03-30T14:40:47;100398.91;;;17.31;60.70
49461;BME280;35355;49.198;-0.368;2023-03-30T14:43:17;100395.19;;;17.27;60.33
49461;BME280;35355;49.198;-0.368;2023-03-30T14:45:44;100384.25;;;17.22;59.85
49461;BME280;35355;49.198;-0.368;2023-03-30T14:48:21;100376.13;;;17.17;60.57
49461;BME280;35355;49.198;-0.368;2023-03-30T14:50:48;100373.38;;;17.17;60.14
49461;BME280;35355;49.198;-0.368;2023-03-30T14:53:17;100370.41;;;17.13;59.94
49461;BME280;35355;49.198;-0.368;2023-03-30T14:55:44;100367.97;;;17.12;60.01
49461;BME280;35355;49.198;-0.368;2023-03-30T14:58:13;100358.91;;;17.11;60.17
49461;BME280;35355;49.198;-0.368;2023-03-30T15:00:39;100367.97;;;17.12;59.69
49461;BME280;35355;49.198;-0.368;2023-03-30T15:03:08;100363.91;;;17.09;59.87
49461;BME280;35355;49.198;-0.368;2023-03-30T15:05:36;100363.72;;;17.06;59.73
49461;BME280;35355;49.198;-0.368;2023-03-30T15:08:03;100357.34;;;16.96;59.83
49461;BME280;35355;49.198;-0.368;2023-03-30T15:10:34;100343.19;;;16.89;59.99
49461;BME280;35355;49.198;-0.368;2023-03-30T15:13:01;100338.00;;;16.88;60.14
49461;BME280;35355;49.198;-0.368;2023-03-30T15:15:29;100325.28;;;16.87;60.39
49461;BME280;35355;49.198;-0.368;2023-03-30T15:17:56;100308.06;;;16.81;60.10
49461;BME280;35355;49.198;-0.368;2023-03-30T15:20:27;100316.66;;;16.79;60.19
49461;BME280;35355;49.198;-0.368;2023-03-30T15:22:54;100299.63;;;16.77;60.38
49461;BME280;35355;49.198;-0.368;2023-03-30T15:25:23;100305.78;;;16.74;60.46
49461;BME280;35355;49.198;-0.368;2023-03-30T15:28:04;100304.44;;;16.72;60.56
49461;BME280;35355;49.198;-0.368;2023-03-30T15:30:38;100306.69;;;16.70;60.16